Time;durP1;ratioP1;P1;durP2;ratioP2;P2;SDS_P1;SDS_P2;PMS_P1;PMS_P2;Temp;Humidity;BMP_temperature;BMP_pressure;BME280_temperature;BME280_humidity;BME280_pressure;Samples;Min_cycle;Max_cycle;Signal;HPM_P1;HPM_P2
2023/06/30 00:00:15;;;;;;;1999.90;999.90;;;16.60;99.90;;;;;;4939766;29;20440;-72
2023/06/30 00:02:46;;;;;;;1999.90;999.90;;;16.50;99.90;;;;;;4938620;29;20087;-72
2023/06/30 00:05:13;;;;;;;1999.90;999.90;;;16.50;99.90;;;;;;4939560;29;20052;-73
2023/06/30 00:07:39;;;;;;;1999.90;999.90;;;16.50;99.90;;;;;;4939612;29;20122;-72
2023/06/30 00:10:07;;;;;;;1999.90;999.90;;;16.40;99.90;;;;;;4938990;29;20058;-72
2023/06/30 00:12:33;;;;;;;1999.90;999.90;;;16.40;99.90;;;;;;4939307;29;20107;-72
2023/06/30 00:14:59;;;;;;;1999.90;999.90;;;16.30;99.90;;;;;;4939146;29;20600;-72
2023/06/30 00:17:25;;;;;;;1999.90;999.90;;;16.30;99.90;;;;;;4937880;29;20484;-72
2023/06/30 00:19:51;;;;;;;1999.90;999.90;;;16.20;99.90;;;;;;4938102;29;20052;-73
2023/06/30 00:22:20;;;;;;;1999.90;999.90;;;16.20;99.90;;;;;;4939053;29;20369;-73
2023/06/30 00:24:48;;;;;;;1999.90;999.90;;;16.20;99.90;;;;;;4939237;29;20381;-72
2023/06/30 00:27:14;;;;;;;1999.90;999.90;;;16.10;99.90;;;;;;4939154;29;20130;-73
2023/06/30 00:29:39;;;;;;;1999.90;999.90;;;16.10;99.90;;;;;;4938745;29;20130;-72
2023/06/30 00:32:05;;;;;;;1999.90;999.90;;;16.10;99.90;;;;;;4939332;29;20064;-72
2023/06/30 00:34:31;;;;;;;1999.90;999.90;;;16.10;99.90;;;;;;4938655;29;20048;-72
2023/06/30 00:36:57;;;;;;;1999.90;999.90;;;16.00;99.90;;;;;;4938789;29;20432;-72
2023/06/30 00:39:22;;;;;;;1999.90;999.90;;;16.00;99.90;;;;;;4937271;29;20055;-72
2023/06/30 00:41:48;;;;;;;1999.90;999.90;;;15.90;99.90;;;;;;4938117;29;20051;-72
2023/06/30 00:44:14;;;;;;;1999.90;999.90;;;15.90;99.90;;;;;;4938815;29;20138;-72
2023/06/30 00:46:40;;;;;;;1999.90;999.90;;;15.80;99.90;;;;;;4921784;29;20060;-73
2023/06/30 00:49:06;;;;;;;1999.90;999.90;;;15.80;99.90;;;;;;4938544;29;20412;-72
2023/06/30 00:51:32;;;;;;;1999.90;999.90;;;15.80;99.90;;;;;;4922127;29;20499;-72
2023/06/30 00:53:58;;;;;;;1999.90;999.90;;;15.70;99.90;;;;;;4938611;29;20057;-72
2023/06/30 00:56:24;;;;;;;1999.90;999.90;;;15.70;99.90;;;;;;4938478;29;20048;-72
2023/06/30 00:58:49;;;;;;;1999.90;999.90;;;15.70;99.90;;;;;;4938627;29;20046;-72
2023/06/30 01:01:40;;;;;;;1999.90;999.90;;;15.70;99.90;;;;;;4937242;29;20051;-72
2023/06/30 01:04:23;;;;;;;1999.90;999.90;;;15.60;99.90;;;;;;4938181;29;20142;-72
2023/06/30 01:07:04;;;;;;;1999.90;999.90;;;15.60;99.90;;;;;;4938553;29;20052;-72
2023/06/30 01:09:37;;;;;;;1999.90;999.90;;;15.60;99.90;;;;;;4936074;29;20092;-71
2023/06/30 01:12:04;;;;;;;1999.90;999.90;;;15.60;99.90;;;;;;4938338;29;20083;-70
2023/06/30 01:14:31;;;;;;;1999.90;999.90;;;15.50;99.90;;;;;;4936910;29;20047;-71
2023/06/30 01:16:58;;;;;;;1999.90;999.90;;;15.50;99.90;;;;;;4938287;29;20051;-71
2023/06/30 01:19:35;;;;;;;1999.90;999.90;;;15.40;99.90;;;;;;4938287;29;20509;-71
2023/06/30 01:22:25;;;;;;;1999.90;999.90;;;15.40;99.90;;;;;;4938229;29;20138;-71
2023/06/30 01:24:56;;;;;;;1999.90;999.90;;;15.40;99.90;;;;;;4938136;29;20055;-71
2023/06/30 01:27:22;;;;;;;1999.90;999.90;;;15.30;99.90;;;;;;4938140;29;20074;-71
2023/06/30 01:29:50;;;;;;;1999.90;999.90;;;15.30;99.90;;;;;;4937169;29;20552;-72
2023/06/30 01:32:17;;;;;;;1999.90;999.90;;;15.30;99.90;;;;;;4920704;29;20096;-73
2023/06/30 01:34:46;;;;;;;1999.90;999.90;;;15.30;99.90;;;;;;4921079;29;20134;-72
2023/06/30 01:37:13;;;;;;;1999.90;999.90;;;15.30;99.90;;;;;;4937586;29;20195;-72
2023/06/30 01:39:42;;;;;;;1999.90;999.90;;;15.30;99.90;;;;;;4937170;29;20056;-72
2023/06/30 01:42:09;;;;;;;1999.90;999.90;;;15.20;99.90;;;;;;4936542;29;20143;-72
2023/06/30 01:44:36;;;;;;;1999.90;999.90;;;15.20;99.90;;;;;;4937602;29;20087;-72
2023/06/30 01:47:02;;;;;;;1999.90;999.90;;;15.20;99.90;;;;;;4937663;29;20102;-72
2023/06/30 01:49:28;;;;;;;1999.90;999.90;;;15.20;99.90;;;;;;4937331;29;20048;-70
2023/06/30 01:51:54;;;;;;;1999.90;999.90;;;15.20;99.90;;;;;;4937478;29;20079;-72
2023/06/30 01:54:19;;;;;;;1999.90;999.90;;;15.20;99.90;;;;;;4936465;29;20039;-73
2023/06/30 01:56:49;;;;;;;1999.90;999.90;;;15.10;99.90;;;;;;4936230;29;20047;-72
2023/06/30 01:59:15;;;;;;;1999.90;999.90;;;15.10;99.90;;;;;;4937796;29;20040;-71
2023/06/30 02:01:41;;;;;;;1999.90;999.90;;;15.10;99.90;;;;;;4936209;29;20539;-72
2023/06/30 02:04:06;;;;;;;1999.90;999.90;;;15.10;99.90;;;;;;4936319;29;20055;-72
2023/06/30 02:06:33;;;;;;;1999.90;999.90;;;15.10;99.90;;;;;;4937029;29;20055;-71
2023/06/30 02:08:58;;;;;;;1999.90;999.90;;;15.00;99.90;;;;;;4936901;29;20054;-72
2023/06/30 02:11:24;;;;;;;1999.90;999.90;;;15.00;99.90;;;;;;4935969;29;20083;-72
2023/06/30 02:13:50;;;;;;;1999.90;999.90;;;15.00;99.90;;;;;;4935884;29;20487;-72
2023/06/30 02:16:15;;;;;;;1999.90;999.90;;;15.00;99.90;;;;;;4937020;29;20052;-72
2023/06/30 02:18:41;;;;;;;1999.90;999.90;;;15.00;99.90;;;;;;4935909;29;20051;-72
2023/06/30 02:21:07;;;;;;;1999.90;999.90;;;15.00;99.90;;;;;;4936005;29;20047;-72
2023/06/30 02:23:32;;;;;;;1999.90;999.90;;;15.00;99.90;;;;;;4936919;29;20048;-73
2023/06/30 02:25:58;;;;;;;1999.90;999.90;;;15.00;99.90;;;;;;4937125;29;20047;-72
2023/06/30 02:28:24;;;;;;;1999.90;999.90;;;14.90;99.90;;;;;;4936681;29;20083;-72
2023/06/30 02:30:50;;;;;;;1999.90;999.90;;;14.90;99.90;;;;;;4935486;29;20134;-71
2023/06/30 02:33:16;;;;;;;1999.90;999.90;;;14.90;99.90;;;;;;4935879;29;20485;-72
2023/06/30 02:35:41;;;;;;;1999.90;999.90;;;14.90;99.90;;;;;;4935484;29;20062;-72
2023/06/30 02:38:07;;;;;;;1999.90;999.90;;;14.90;99.90;;;;;;4937409;29;20047;-72
2023/06/30 02:40:33;;;;;;;1999.90;999.90;;;14.90;99.90;;;;;;4935380;29;20063;-73
2023/06/30 02:42:59;;;;;;;1999.90;999.90;;;14.90;99.90;;;;;;4936871;29;20377;-73
2023/06/30 02:45:25;;;;;;;1999.90;999.90;;;14.80;99.90;;;;;;4936420;29;20059;-73
2023/06/30 02:47:50;;;;;;;1999.90;999.90;;;14.80;99.90;;;;;;4935256;29;20051;-73
2023/06/30 02:50:17;;;;;;;1999.90;999.90;;;14.80;99.90;;;;;;4936255;29;20408;-73
2023/06/30 02:52:44;;;;;;;1999.90;999.90;;;14.80;99.90;;;;;;4936795;29;20058;-73
2023/06/30 02:55:09;;;;;;;1999.90;999.90;;;14.80;99.90;;;;;;4935444;29;20047;-73
2023/06/30 02:57:35;;;;;;;1999.90;999.90;;;14.80;99.90;;;;;;4936440;29;20054;-73
2023/06/30 03:00:01;;;;;;;1999.90;999.90;;;14.80;99.90;;;;;;4936275;29;20125;-73
2023/06/30 03:02:27;;;;;;;1999.90;999.90;;;14.70;99.90;;;;;;4936111;29;20048;-72
2023/06/30 03:04:55;;;;;;;1999.90;999.90;;;14.70;99.90;;;;;;4935241;29;20052;-72
2023/06/30 03:07:21;;;;;;;1999.90;999.90;;;14.70;99.90;;;;;;4936253;29;20090;-72
2023/06/30 03:09:47;;;;;;;1999.90;999.90;;;14.70;99.90;;;;;;4935759;29;20469;-72
2023/06/30 03:12:13;;;;;;;1999.90;999.90;;;14.60;99.90;;;;;;4935061;29;20548;-72
2023/06/30 03:14:39;;;;;;;1999.90;999.90;;;14.60;99.90;;;;;;4935988;29;20142;-72
2023/06/30 03:17:05;;;;;;;1999.90;999.90;;;14.50;99.90;;;;;;4935112;29;20051;-72
2023/06/30 03:19:30;;;;;;;1999.90;999.90;;;14.50;99.90;;;;;;4935855;29;20099;-72
2023/06/30 03:21:56;;;;;;;1999.90;999.90;;;14.50;99.90;;;;;;4936044;29;20047;-72
2023/06/30 03:24:22;;;;;;;1999.90;999.90;;;14.50;99.90;;;;;;4935825;29;20059;-73
2023/06/30 03:26:48;;;;;;;1999.90;999.90;;;14.40;99.90;;;;;;4936155;29;20051;-72
2023/06/30 03:29:13;;;;;;;1999.90;999.90;;;14.40;99.90;;;;;;4936009;29;20551;-72
2023/06/30 03:31:39;;;;;;;1999.90;999.90;;;14.30;99.90;;;;;;4934829;29;20139;-73
2023/06/30 03:34:05;;;;;;;1999.90;999.90;;;14.30;99.90;;;;;;4942254;29;20115;-73
2023/06/30 03:36:30;;;;;;;1999.90;999.90;;;14.30;99.90;;;;;;4925974;29;20059;-72
2023/06/30 03:38:56;;;;;;;1999.90;999.90;;;14.30;99.90;;;;;;4941806;29;20043;-73
2023/06/30 03:41:22;;;;;;;1999.90;999.90;;;14.30;99.90;;;;;;4942249;29;20043;-72
2023/06/30 03:43:47;;;;;;;1999.90;999.90;;;14.30;99.90;;;;;;4942211;29;20400;-73
2023/06/30 03:46:15;;;;;;;1999.90;999.90;;;14.30;99.90;;;;;;4941230;29;20058;-73
2023/06/30 03:48:41;;;;;;;1999.90;999.90;;;14.20;99.90;;;;;;4941950;29;20051;-73
2023/06/30 03:51:06;;;;;;;1999.90;999.90;;;14.30;99.90;;;;;;4942191;29;20377;-73
2023/06/30 03:53:32;;;;;;;1999.90;999.90;;;14.30;99.90;;;;;;4941289;29;20055;-73
2023/06/30 03:55:58;;;;;;;1999.90;999.90;;;14.30;99.90;;;;;;4925403;29;20492;-73
2023/06/30 03:58:24;;;;;;;1999.90;999.90;;;14.30;99.90;;;;;;4942097;29;20044;-73
2023/06/30 04:00:50;;;;;;;1999.90;999.90;;;14.20;99.90;;;;;;4942309;29;20500;-73
2023/06/30 04:03:15;;;;;;;1999.90;999.90;;;14.20;99.90;;;;;;4941002;29;20492;-72
2023/06/30 04:05:41;;;;;;;1999.90;999.90;;;14.30;99.90;;;;;;4941950;29;20099;-72
2023/06/30 04:08:07;;;;;;;1999.90;999.90;;;14.30;99.90;;;;;;4941084;29;20094;-72
2023/06/30 04:10:33;;;;;;;1999.90;999.90;;;14.30;99.90;;;;;;4924669;29;20082;-73
2023/06/30 04:12:59;;;;;;;1999.90;999.90;;;14.30;99.90;;;;;;4940898;29;20048;-74
2023/06/30 04:15:24;;;;;;;1999.90;999.90;;;14.20;99.90;;;;;;4941929;29;20464;-73
2023/06/30 04:17:50;;;;;;;1999.90;999.90;;;14.20;99.90;;;;;;4925058;29;20107;-73
2023/06/30 04:20:16;;;;;;;1999.90;999.90;;;14.20;99.90;;;;;;4942224;29;20047;-72
2023/06/30 04:22:42;;;;;;;1999.90;999.90;;;14.10;99.90;;;;;;4941099;29;20492;-72
2023/06/30 04:25:08;;;;;;;1999.90;999.90;;;14.10;99.90;;;;;;4941844;29;20052;-73
2023/06/30 04:27:34;;;;;;;1999.90;999.90;;;14.10;99.90;;;;;;4925457;29;20055;-73
2023/06/30 04:30:00;;;;;;;1999.90;999.90;;;14.10;99.90;;;;;;4924880;29;20127;-73
2023/06/30 04:32:26;;;;;;;1999.90;999.90;;;14.10;99.90;;;;;;4925213;29;20136;-72
2023/06/30 04:34:51;;;;;;;1999.90;999.90;;;14.00;99.90;;;;;;4941764;29;20059;-72
2023/06/30 04:37:17;;;;;;;1999.90;999.90;;;14.10;99.90;;;;;;4941965;29;20396;-72
2023/06/30 04:39:43;;;;;;;1999.90;999.90;;;14.00;99.90;;;;;;4940184;29;20114;-73
2023/06/30 04:42:09;;;;;;;1999.90;999.90;;;14.00;99.90;;;;;;4941853;29;20066;-73
2023/06/30 04:44:36;;;;;;;1999.90;999.90;;;14.00;99.90;;;;;;4938045;29;20056;-72
2023/06/30 04:47:02;;;;;;;1999.90;999.90;;;14.00;99.90;;;;;;4938592;29;20040;-72
2023/06/30 04:49:28;;;;;;;1999.90;999.90;;;14.00;99.90;;;;;;4938819;29;20055;-72
2023/06/30 04:51:54;;;;;;;1999.90;999.90;;;14.00;99.90;;;;;;4938741;29;20159;-73
2023/06/30 04:54:21;;;;;;;1999.90;999.90;;;14.00;99.90;;;;;;4938731;29;20145;-72
2023/06/30 04:56:47;;;;;;;1999.90;999.90;;;14.00;99.90;;;;;;4937250;29;20048;-73
2023/06/30 04:59:12;;;;;;;1999.90;999.90;;;14.00;99.90;;;;;;4938667;29;20047;-72
2023/06/30 05:01:38;;;;;;;1999.90;999.90;;;14.00;99.90;;;;;;4938249;29;20098;-72
2023/06/30 05:04:04;;;;;;;1999.90;999.90;;;14.00;99.90;;;;;;4937491;29;20054;-72
2023/06/30 05:06:30;;;;;;;1999.90;999.90;;;14.10;99.90;;;;;;4921848;29;20048;-72
2023/06/30 05:08:55;;;;;;;1999.90;999.90;;;14.10;99.90;;;;;;4905583;29;20074;-73
2023/06/30 05:11:21;;;;;;;1999.90;999.90;;;14.20;99.90;;;;;;4937209;29;20138;-72
2023/06/30 05:13:47;;;;;;;1999.90;999.90;;;14.20;99.90;;;;;;4937175;29;20441;-73
2023/06/30 05:16:13;;;;;;;1999.90;999.90;;;14.30;99.90;;;;;;4938258;29;20054;-72
2023/06/30 05:18:38;;;;;;;1999.90;999.90;;;14.30;99.90;;;;;;4937162;29;20055;-72
2023/06/30 05:21:06;;;;;;;1999.90;999.90;;;14.40;99.90;;;;;;4921614;29;20179;-71
2023/06/30 05:23:32;;;;;;;1999.90;999.90;;;14.50;99.90;;;;;;4938216;29;20051;-71
2023/06/30 05:25:58;;;;;;;1999.90;999.90;;;14.50;99.90;;;;;;4938203;29;20070;-71
2023/06/30 05:28:24;;;;;;;1999.90;999.90;;;14.50;99.90;;;;;;4936903;29;20122;-72
2023/06/30 05:30:50;;;;;;;1999.90;999.90;;;14.60;99.90;;;;;;4937335;29;20631;-72
2023/06/30 05:33:15;;;;;;;1999.90;999.90;;;14.60;99.90;;;;;;4938075;29;20400;-72
2023/06/30 05:35:41;;;;;;;1999.90;999.90;;;14.60;99.90;;;;;;4936774;29;20055;-72
2023/06/30 05:38:07;;;;;;;1999.90;999.90;;;14.70;99.90;;;;;;4921302;29;20051;-70
2023/06/30 05:40:32;;;;;;;1999.90;999.90;;;14.80;99.90;;;;;;4937010;29;20050;-72
2023/06/30 05:42:58;;;;;;;1999.90;999.90;;;14.80;99.90;;;;;;4936465;29;20051;-72
2023/06/30 05:45:25;;;;;;;1999.90;999.90;;;14.80;99.90;;;;;;4937468;29;20083;-72
2023/06/30 05:47:51;;;;;;;1999.90;999.90;;;14.90;99.90;;;;;;4936512;29;20205;-72
2023/06/30 05:50:17;;;;;;;1999.90;999.90;;;15.00;99.90;;;;;;4936278;29;20083;-72
2023/06/30 05:52:43;;;;;;;1999.90;999.90;;;15.10;99.90;;;;;;4937197;29;20051;-72
2023/06/30 05:55:08;;;;;;;1999.90;999.90;;;15.10;99.90;;;;;;4937220;29;20508;-72
2023/06/30 05:57:34;;;;;;;1999.90;999.90;;;15.20;99.90;;;;;;4920468;29;20044;-71
2023/06/30 06:00:00;;;;;;;1999.90;999.90;;;15.30;99.90;;;;;;4936898;29;20103;-70
2023/06/30 06:02:26;;;;;;;1999.90;999.90;;;15.30;99.90;;;;;;4937540;29;20055;-71
2023/06/30 06:04:52;;;;;;;1999.90;999.90;;;15.40;99.90;;;;;;4937427;29;20392;-72
2023/06/30 06:07:17;;;;;;;1999.90;999.90;;;15.40;99.90;;;;;;4936272;29;20134;-71
2023/06/30 06:09:43;;;;;;;1999.90;999.90;;;15.50;99.90;;;;;;4936860;29;20036;-71
2023/06/30 06:12:09;;;;;;;1999.90;999.90;;;15.60;99.90;;;;;;4936245;29;20052;-72
2023/06/30 06:14:35;;;;;;;1999.90;999.90;;;15.60;99.90;;;;;;4936983;29;20049;-71
2023/06/30 06:17:01;;;;;;;1999.90;999.90;;;15.70;99.90;;;;;;4937268;29;20047;-72
2023/06/30 06:19:26;;;;;;;1999.90;999.90;;;15.70;99.90;;;;;;4937181;29;20043;-72
2023/06/30 06:21:52;;;;;;;1999.90;999.90;;;15.80;99.90;;;;;;4904980;29;20374;-73
2023/06/30 06:24:18;;;;;;;1999.90;999.90;;;15.80;99.90;;;;;;4935974;29;20106;-71
2023/06/30 06:26:43;;;;;;;1999.90;999.90;;;15.80;99.90;;;;;;4935736;29;20477;-71
2023/06/30 06:29:09;;;;;;;1999.90;999.90;;;15.90;99.90;;;;;;4936620;29;20046;-71
2023/06/30 06:31:35;;;;;;;1999.90;999.90;;;16.00;99.90;;;;;;4936611;29;20067;-72
2023/06/30 06:34:01;;;;;;;1999.90;999.90;;;16.00;99.90;;;;;;4936833;29;20058;-72
2023/06/30 06:36:26;;;;;;;1999.90;999.90;;;16.10;99.90;;;;;;4936716;29;20070;-72
2023/06/30 06:38:52;;;;;;;1999.90;999.90;;;16.10;99.90;;;;;;4935566;29;20046;-71
2023/06/30 06:41:18;;;;;;;1999.90;999.90;;;16.20;99.90;;;;;;4936026;29;20055;-71
2023/06/30 06:43:43;;;;;;;1999.90;999.90;;;16.30;99.90;;;;;;4936365;29;20044;-72
2023/06/30 06:46:09;;;;;;;1999.90;999.90;;;16.30;99.90;;;;;;4935592;29;20094;-71
2023/06/30 06:48:35;;;;;;;1999.90;999.90;;;16.30;99.90;;;;;;4919803;29;20052;-70
2023/06/30 06:51:03;;;;;;;1999.90;999.90;;;16.30;99.90;;;;;;4936508;29;20099;-71
2023/06/30 06:53:34;;;;;;;1999.90;999.90;;;16.40;99.90;;;;;;4936372;29;20415;-72
2023/06/30 06:56:01;;;;;;;1999.90;999.90;;;16.40;99.90;;;;;;4936376;29;20444;-70
2023/06/30 06:58:32;;;;;;;1999.90;999.90;;;16.50;99.90;;;;;;4935159;29;20043;-70
2023/06/30 07:00:58;;;;;;;1999.90;999.90;;;16.50;99.90;;;;;;4935283;29;20110;-70
2023/06/30 07:03:25;;;;;;;1999.90;999.90;;;16.60;99.90;;;;;;4935436;29;20052;-70
2023/06/30 07:05:51;;;;;;;1999.90;999.90;;;16.70;99.90;;;;;;4935147;29;20048;-68
2023/06/30 07:08:18;;;;;;;1999.90;999.90;;;16.70;99.90;;;;;;4919496;29;20102;-71
2023/06/30 07:10:45;;;;;;;1999.90;999.90;;;16.70;99.90;;;;;;4903373;29;20052;-71
2023/06/30 07:13:12;;;;;;;1999.90;999.90;;;16.70;99.90;;;;;;4919267;29;20062;-71
2023/06/30 07:15:38;;;;;;;1999.90;999.90;;;16.70;99.90;;;;;;4919334;29;20071;-72
2023/06/30 07:18:04;;;;;;;1999.90;999.90;;;16.80;99.90;;;;;;4919265;29;20408;-71
2023/06/30 07:20:30;;;;;;;1999.90;999.90;;;16.90;99.90;;;;;;4935932;29;20102;-70
2023/06/30 07:22:56;;;;;;;1999.90;999.90;;;17.00;99.90;;;;;;4916707;29;20560;-70
2023/06/30 07:25:25;;;;;;;1999.90;999.90;;;17.10;99.90;;;;;;4915932;29;20052;-70
2023/06/30 07:27:57;;;;;;;1999.90;999.90;;;17.10;99.90;;;;;;4917090;29;20055;-72
2023/06/30 07:30:27;;;;;;;1999.90;999.90;;;17.20;99.90;;;;;;4917947;29;20116;-70
2023/06/30 07:32:53;;;;;;;1999.90;999.90;;;17.30;99.90;;;;;;4915912;29;20400;-70
2023/06/30 07:35:21;;;;;;;1999.90;999.90;;;17.30;99.90;;;;;;4916128;29;20051;-70
2023/06/30 07:37:47;;;;;;;1999.90;999.90;;;17.40;99.90;;;;;;4916950;29;20135;-69
2023/06/30 07:40:14;;;;;;;1999.90;999.90;;;17.50;99.90;;;;;;4915106;29;20497;-70
2023/06/30 07:42:40;;;;;;;1999.90;999.90;;;17.50;99.90;;;;;;4917296;29;20401;-71
2023/06/30 07:45:11;;;;;;;1999.90;999.90;;;17.60;99.90;;;;;;4917355;29;20048;-70
2023/06/30 07:47:40;;;;;;;1999.90;999.90;;;17.50;99.90;;;;;;4917158;29;20044;-69
2023/06/30 07:50:11;;;;;;;1999.90;999.90;;;17.40;99.90;;;;;;4916989;29;20441;-69
2023/06/30 07:52:40;;;;;;;1999.90;999.90;;;17.50;99.90;;;;;;4916861;29;20500;-70
2023/06/30 07:55:06;;;;;;;1999.90;999.90;;;17.50;99.90;;;;;;4916979;29;20079;-71
2023/06/30 07:57:32;;;;;;;1999.90;999.90;;;17.50;99.90;;;;;;4916915;29;20059;-71
2023/06/30 07:59:57;;;;;;;1999.90;999.90;;;17.60;99.90;;;;;;4917017;29;20044;-71
2023/06/30 08:02:23;;;;;;;1999.90;999.90;;;17.60;99.90;;;;;;4916035;29;20055;-70
2023/06/30 08:04:50;;;;;;;1999.90;999.90;;;17.60;99.90;;;;;;4916876;29;20142;-69
2023/06/30 08:07:15;;;;;;;1999.90;999.90;;;17.70;99.90;;;;;;4916757;29;20056;-70
2023/06/30 08:09:41;;;;;;;1999.90;999.90;;;17.60;99.90;;;;;;4915422;29;20055;-71
2023/06/30 08:12:07;;;;;;;1999.90;999.90;;;17.60;99.90;;;;;;4916746;29;20059;-71
2023/06/30 08:14:33;;;;;;;1999.90;999.90;;;17.60;99.90;;;;;;4917134;29;20052;-72
2023/06/30 08:16:59;;;;;;;1999.90;999.90;;;17.70;99.90;;;;;;4916767;29;20519;-70
2023/06/30 08:19:25;;;;;;;1999.90;999.90;;;17.70;99.90;;;;;;4917478;29;20520;-71
2023/06/30 08:21:50;;;;;;;1999.90;999.90;;;17.70;99.90;;;;;;4920336;29;20052;-71
2023/06/30 08:24:16;;;;;;;1999.90;999.90;;;17.70;99.90;;;;;;4920443;29;20481;-70
2023/06/30 08:26:42;;;;;;;1999.90;999.90;;;17.70;99.90;;;;;;4907352;29;20083;-72
2023/06/30 08:29:07;;;;;;;1999.90;999.90;;;17.90;99.90;;;;;;4910217;29;20099;-72
2023/06/30 08:31:33;;;;;;;1999.90;999.90;;;17.80;99.90;;;;;;4908506;29;20052;-71
2023/06/30 08:34:00;;;;;;;1999.90;999.90;;;17.90;99.90;;;;;;4910739;29;20045;-73
2023/06/30 08:36:26;;;;;;;1999.90;999.90;;;17.90;99.90;;;;;;4892416;29;20108;-72
2023/06/30 08:38:51;;;;;;;1999.90;999.90;;;17.90;99.90;;;;;;4910955;29;20036;-69
2023/06/30 08:41:18;;;;;;;1999.90;999.90;;;17.90;99.90;;;;;;4908673;29;20044;-70
2023/06/30 08:43:45;;;;;;;1999.90;999.90;;;17.90;99.90;;;;;;4908145;29;20718;-71
2023/06/30 08:46:12;;;;;;;1999.90;999.90;;;18.10;99.90;;;;;;4910936;29;20040;-70
2023/06/30 08:48:39;;;;;;;1999.90;999.90;;;18.10;99.90;;;;;;4910146;29;20044;-72
2023/06/30 08:51:05;;;;;;;1999.90;999.90;;;18.20;99.90;;;;;;4907661;29;20449;-72
2023/06/30 08:53:32;;;;;;;1999.90;999.90;;;18.30;99.90;;;;;;4910644;29;20040;-70
2023/06/30 08:55:59;;;;;;;1999.90;999.90;;;18.40;99.90;;;;;;4908797;29;20409;-70
2023/06/30 08:58:28;;;;;;;1999.90;999.90;;;18.50;99.90;;;;;;4907797;29;20134;-72
2023/06/30 09:00:57;;;;;;;1999.90;999.90;;;18.60;99.90;;;;;;4910174;29;20044;-70
2023/06/30 09:03:23;;;;;;;1999.90;999.90;;;18.60;99.90;;;;;;4909068;29;20044;-71
2023/06/30 09:05:58;;;;;;;1999.90;999.90;;;18.70;99.90;;;;;;4912636;29;20107;-70
2023/06/30 09:08:33;;;;;;;1999.90;999.90;;;18.70;99.90;;;;;;4910483;29;20044;-71
2023/06/30 09:10:59;;;;;;;1999.90;999.90;;;18.70;99.90;;;;;;4913553;29;20118;-70
2023/06/30 09:13:26;;;;;;;1999.90;999.90;;;18.80;99.90;;;;;;4909524;29;20493;-71
2023/06/30 09:15:57;;;;;;;1999.90;999.90;;;18.90;99.90;;;;;;4908863;29;20469;-71
2023/06/30 09:18:23;;;;;;;1999.90;999.90;;;18.90;99.90;;;;;;4910228;29;20056;-71
2023/06/30 09:20:49;;;;;;;1999.90;999.90;;;18.90;99.90;;;;;;4909179;29;20048;-70
2023/06/30 09:23:16;;;;;;;1999.90;999.90;;;18.80;99.90;;;;;;4909346;29;20040;-71
2023/06/30 09:25:42;;;;;;;1999.90;999.90;;;18.80;99.90;;;;;;4894578;29;20436;-71
2023/06/30 09:28:14;;;;;;;1999.90;999.90;;;18.70;99.90;;;;;;4908751;29;20048;-71
2023/06/30 09:30:45;;;;;;;1999.90;999.90;;;18.60;99.90;;;;;;4908410;29;20043;-71
2023/06/30 09:33:14;;;;;;;1999.90;999.90;;;18.60;99.90;;;;;;4911169;29;20052;-71
2023/06/30 09:35:44;;;;;;;1999.90;999.90;;;18.50;99.90;;;;;;4910798;29;20054;-70
2023/06/30 09:38:11;;;;;;;1999.90;999.90;;;18.50;99.90;;;;;;4911281;29;20043;-69
2023/06/30 09:40:36;;;;;;;1999.90;999.90;;;18.50;99.90;;;;;;4908721;29;20123;-71
2023/06/30 09:43:04;;;;;;;1999.90;999.90;;;18.50;99.90;;;;;;4901138;29;20044;-71
2023/06/30 09:45:29;;;;;;;1999.90;999.90;;;18.60;99.90;;;;;;4918126;29;20408;-71
2023/06/30 09:47:55;;;;;;;1999.90;999.90;;;18.70;99.90;;;;;;4918132;29;20051;-69
2023/06/30 09:50:25;;;;;;;1999.90;999.90;;;18.80;99.90;;;;;;4900968;29;20127;-70
2023/06/30 09:52:51;;;;;;;1999.90;999.90;;;18.90;99.90;;;;;;4916910;29;20073;-72
2023/06/30 09:55:17;;;;;;;1999.90;999.90;;;19.00;99.90;;;;;;4901603;29;20059;-71
2023/06/30 09:57:46;;;;;;;1999.90;999.90;;;19.10;99.90;;;;;;4916703;29;20154;-71
2023/06/30 10:00:13;;;;;;;1999.90;999.90;;;19.10;99.90;;;;;;4917807;29;20634;-72
2023/06/30 10:02:42;;;;;;;1999.90;999.90;;;19.10;99.90;;;;;;4901124;29;20063;-70
2023/06/30 10:05:09;;;;;;;1999.90;999.90;;;19.10;99.90;;;;;;4917591;29;20048;-71
2023/06/30 10:07:35;;;;;;;1999.90;999.90;;;19.10;99.90;;;;;;4916948;29;20051;-70
2023/06/30 10:10:02;;;;;;;1999.90;999.90;;;19.00;99.90;;;;;;4916818;29;20036;-70
2023/06/30 10:12:33;;;;;;;1999.90;999.90;;;18.90;99.90;;;;;;4916099;29;20068;-71
2023/06/30 10:15:00;;;;;;;1999.90;999.90;;;18.90;99.90;;;;;;4916599;29;20515;-71
2023/06/30 10:17:27;;;;;;;1999.90;999.90;;;18.90;99.90;;;;;;4917493;29;20561;-72
2023/06/30 10:19:53;;;;;;;1999.90;999.90;;;18.90;99.90;;;;;;4900662;29;20047;-72
2023/06/30 10:22:19;;;;;;;1999.90;999.90;;;18.90;99.90;;;;;;4917600;29;20051;-72
2023/06/30 10:24:48;;;;;;;1999.90;999.90;;;18.90;99.90;;;;;;4917492;29;20055;-72
2023/06/30 10:27:18;;;;;;;1999.90;999.90;;;18.90;99.90;;;;;;4917692;29;20048;-72
2023/06/30 10:29:47;;;;;;;1999.90;999.90;;;18.90;99.90;;;;;;4917829;29;20184;-71
2023/06/30 10:32:14;;;;;;;1999.90;999.90;;;19.00;99.90;;;;;;4917938;29;20067;-71
2023/06/30 10:34:42;;;;;;;1999.90;999.90;;;19.10;99.90;;;;;;4917905;29;20048;-72
2023/06/30 10:37:07;;;;;;;1999.90;999.90;;;19.20;99.90;;;;;;4917836;29;20051;-71
2023/06/30 10:39:34;;;;;;;1999.90;999.90;;;19.30;99.90;;;;;;4916005;29;20400;-70
2023/06/30 10:42:00;;;;;;;1999.90;999.90;;;19.40;99.90;;;;;;4917138;29;20044;-71
2023/06/30 10:44:43;;;;;;;1999.90;999.90;;;19.50;99.90;;;;;;4901040;29;20052;-71
2023/06/30 10:47:09;;;;;;;1999.90;999.90;;;19.40;99.90;;;;;;4900988;29;20060;-72
2023/06/30 10:49:37;;;;;;;1999.90;999.90;;;19.40;99.90;;;;;;4916280;29;20040;-72
2023/06/30 10:52:06;;;;;;;1999.90;999.90;;;19.40;99.90;;;;;;4916551;29;20087;-72
2023/06/30 10:54:41;;;;;;;1999.90;999.90;;;19.40;99.90;;;;;;4917614;29;20044;-71
2023/06/30 10:57:13;;;;;;;1999.90;999.90;;;19.40;99.90;;;;;;4917514;29;20123;-71
2023/06/30 10:59:43;;;;;;;1999.90;999.90;;;19.40;99.90;;;;;;4917777;29;20044;-70
2023/06/30 11:02:19;;;;;;;1999.90;999.90;;;19.40;99.90;;;;;;4917305;29;20048;-70
2023/06/30 11:04:52;;;;;;;1999.90;999.90;;;19.50;99.90;;;;;;4917652;29;20139;-70
2023/06/30 11:07:27;;;;;;;1999.90;999.90;;;19.50;99.90;;;;;;4917517;29;20056;-69
2023/06/30 11:09:53;;;;;;;1999.90;999.90;;;19.60;99.90;;;;;;4917151;29;20044;-71
2023/06/30 11:12:20;;;;;;;1999.90;999.90;;;19.70;99.90;;;;;;4916524;29;20504;-71
2023/06/30 11:15:00;;;;;;;1999.90;999.90;;;19.90;99.90;;;;;;4917471;29;20052;-72
2023/06/30 11:17:50;;;;;;;1999.90;999.90;;;20.10;99.90;;;;;;4900806;29;20064;-73
2023/06/30 11:20:16;;;;;;;1999.90;999.90;;;20.10;99.90;;;;;;4917114;29;20055;-73
2023/06/30 11:22:58;;;;;;;1999.90;999.90;;;20.20;99.90;;;;;;4917543;29;20052;-71
2023/06/30 11:25:24;;;;;;;1999.90;999.90;;;20.20;99.90;;;;;;4916385;29;20048;-72
2023/06/30 11:27:51;;;;;;;1999.90;999.90;;;20.20;99.90;;;;;;4919083;29;20311;-72
2023/06/30 11:30:18;;;;;;;1999.90;999.90;;;20.10;99.90;;;;;;4932280;29;20051;-70
2023/06/30 11:32:46;;;;;;;1999.90;999.90;;;20.10;99.90;;;;;;4931908;29;20067;-70
2023/06/30 11:35:13;;;;;;;1999.90;999.90;;;20.10;99.90;;;;;;4932438;29;20056;-71
2023/06/30 11:37:39;;;;;;;1999.90;999.90;;;20.10;99.90;;;;;;4933429;29;20059;-74
2023/06/30 11:40:06;;;;;;;1999.90;999.90;;;20.20;99.90;;;;;;4931337;29;20513;-71
2023/06/30 11:42:35;;;;;;;1999.90;999.90;;;20.20;99.90;;;;;;4931859;29;20051;-72
2023/06/30 11:45:01;;;;;;;1999.90;999.90;;;20.20;99.90;;;;;;4933575;29;20107;-71
2023/06/30 11:47:27;;;;;;;1999.90;999.90;;;20.30;99.90;;;;;;4933615;29;20058;-72
2023/06/30 11:49:53;;;;;;;1999.90;999.90;;;20.30;99.90;;;;;;4916401;29;20130;-71
2023/06/30 11:52:20;;;;;;;1999.90;999.90;;;20.40;99.90;;;;;;4916259;29;20059;-72
2023/06/30 11:54:46;;;;;;;1999.90;999.90;;;20.50;99.90;;;;;;4927188;29;20048;-73
2023/06/30 11:57:11;;;;;;;1999.90;999.90;;;20.50;99.90;;;;;;4917991;29;20055;-70